Time;durP1;ratioP1;P1;durP2;ratioP2;P2;SDS_P1;SDS_P2;PMS_P1;PMS_P2;Temp;Humidity;BMP_temperature;BMP_pressure;BME280_temperature;BME280_humidity;BME280_pressure;Samples;Min_cycle;Max_cycle;Signal;HPM_P1;HPM_P2
2023/10/13 00:02:45;;;;;;;20.08;12.60;;;14.40;99.90;;;;;;5059181;28;20097;-74
2023/10/13 00:05:31;;;;;;;20.33;12.80;;;14.40;99.90;;;;;;5095567;28;20118;-74
2023/10/13 00:08:17;;;;;;;22.98;12.85;;;14.40;99.90;;;;;;5058200;28;20039;-74
2023/10/13 00:11:04;;;;;;;21.27;13.77;;;14.40;99.90;;;;;;5087428;28;20066;-74
2023/10/13 00:13:53;;;;;;;23.88;14.13;;;14.50;99.90;;;;;;5077084;28;20472;-74
2023/10/13 00:16:40;;;;;;;21.25;14.20;;;14.50;99.90;;;;;;5087250;28;20506;-74
2023/10/13 00:19:37;;;;;;;20.33;12.27;;;14.50;99.90;;;;;;5092871;28;20038;-73
2023/10/13 00:22:24;;;;;;;21.85;13.43;;;14.50;99.90;;;;;;5066541;28;20047;-74
2023/10/13 00:25:19;;;;;;;20.25;13.20;;;14.50;99.90;;;;;;5108618;28;20040;-74
2023/10/13 00:28:08;;;;;;;18.92;12.10;;;14.50;99.90;;;;;;5063846;28;20079;-74
2023/10/13 00:31:00;;;;;;;19.80;13.07;;;14.50;99.90;;;;;;5073050;28;20126;-74
2023/10/13 00:33:46;;;;;;;19.67;12.88;;;14.60;99.90;;;;;;5098338;28;20046;-74
2023/10/13 00:36:34;;;;;;;23.55;14.32;;;14.50;99.90;;;;;;5110228;28;20039;-74
2023/10/13 00:39:22;;;;;;;21.67;12.77;;;14.50;99.90;;;;;;5078401;28;20078;-74
2023/10/13 00:42:17;;;;;;;23.45;13.40;;;14.50;99.90;;;;;;5073350;28;20075;-74
2023/10/13 00:45:04;;;;;;;21.65;12.88;;;14.60;99.90;;;;;;5090707;28;20119;-74
2023/10/13 00:47:56;;;;;;;21.65;13.35;;;14.60;99.90;;;;;;5102061;27;20073;-74
2023/10/13 00:50:45;;;;;;;21.23;12.32;;;14.60;99.90;;;;;;5102535;28;20032;-74
2023/10/13 00:53:33;;;;;;;19.48;13.20;;;14.60;99.90;;;;;;5073254;28;20035;-74
2023/10/13 00:56:21;;;;;;;20.02;12.18;;;14.60;99.90;;;;;;5086583;28;20047;-74
2023/10/13 00:59:09;;;;;;;20.13;12.70;;;14.60;99.90;;;;;;5084855;28;20111;-74
2023/10/13 01:01:55;;;;;;;21.10;12.80;;;14.60;99.90;;;;;;5081523;28;20050;-74
2023/10/13 01:04:41;;;;;;;18.38;12.50;;;14.60;99.90;;;;;;5081292;28;20088;-74
2023/10/13 01:07:27;;;;;;;25.90;12.70;;;14.60;99.90;;;;;;5068538;28;20043;-74
2023/10/13 01:10:15;;;;;;;18.45;11.93;;;14.60;99.90;;;;;;5075757;28;20047;-74
2023/10/13 01:13:04;;;;;;;16.83;10.85;;;14.70;99.90;;;;;;5085867;28;20043;-73
2023/10/13 01:15:50;;;;;;;18.58;11.45;;;14.60;99.90;;;;;;5065925;28;20107;-74
2023/10/13 01:18:47;;;;;;;18.92;12.50;;;14.70;99.90;;;;;;5089221;28;20123;-74
2023/10/13 01:21:33;;;;;;;17.80;11.80;;;14.70;99.90;;;;;;5093472;28;20075;-74
2023/10/13 01:24:23;;;;;;;20.25;12.07;;;14.70;99.90;;;;;;5077870;28;20079;-74
2023/10/13 01:27:20;;;;;;;17.58;11.93;;;14.70;99.90;;;;;;5075862;28;20046;-74
2023/10/13 01:30:13;;;;;;;16.27;10.40;;;14.70;99.90;;;;;;5079030;28;20031;-74
2023/10/13 01:33:00;;;;;;;19.00;11.65;;;14.70;99.90;;;;;;5059740;28;20055;-74
2023/10/13 01:35:48;;;;;;;16.53;10.43;;;14.70;99.90;;;;;;5076986;28;20043;-74
2023/10/13 01:38:36;;;;;;;17.48;11.20;;;14.70;99.90;;;;;;5091997;28;20039;-74
2023/10/13 01:41:22;;;;;;;19.00;11.55;;;14.80;99.90;;;;;;5095739;28;20040;-73
2023/10/13 01:44:11;;;;;;;17.35;11.40;;;14.80;99.90;;;;;;5062817;28;20040;-73
2023/10/13 01:47:06;;;;;;;18.33;11.00;;;14.80;99.90;;;;;;5095614;28;20121;-74
2023/10/13 01:49:51;;;;;;;19.17;11.52;;;14.80;99.90;;;;;;5095748;28;20032;-74
2023/10/13 01:52:37;;;;;;;12.52;9.63;;;14.80;99.90;;;;;;5087974;28;20053;-74
2023/10/13 01:55:25;;;;;;;16.48;9.73;;;14.80;99.90;;;;;;5097988;28;20406;-74
2023/10/13 01:58:25;;;;;;;15.53;9.67;;;14.80;99.90;;;;;;5081457;28;20043;-74
2023/10/13 02:01:13;;;;;;;18.75;9.80;;;14.80;99.90;;;;;;5093985;28;20754;-74
2023/10/13 02:04:03;;;;;;;17.10;9.52;;;14.90;99.90;;;;;;5069137;28;20050;-74
2023/10/13 02:06:49;;;;;;;16.33;9.68;;;14.90;99.90;;;;;;5089221;28;20051;-74
2023/10/13 02:09:37;;;;;;;15.90;9.57;;;14.90;99.90;;;;;;5075655;28;20035;-74
2023/10/13 02:12:28;;;;;;;11.85;8.73;;;14.90;99.90;;;;;;5094674;28;20083;-74
2023/10/13 02:15:21;;;;;;;15.40;9.55;;;15.00;99.90;;;;;;5088380;28;20074;-74
2023/10/13 02:18:07;;;;;;;17.13;9.15;;;15.00;99.90;;;;;;5064582;28;20035;-74
2023/10/13 02:21:04;;;;;;;13.50;9.85;;;15.00;99.90;;;;;;5097407;28;20359;-74
2023/10/13 02:24:05;;;;;;;16.73;8.93;;;15.00;99.90;;;;;;5079293;28;20064;-74
2023/10/13 02:26:51;;;;;;;14.63;8.60;;;15.00;99.90;;;;;;5090418;28;20084;-74
2023/10/13 02:29:39;;;;;;;14.30;8.38;;;15.10;99.90;;;;;;5059252;28;20085;-74
2023/10/13 02:32:26;;;;;;;14.27;8.20;;;15.10;99.90;;;;;;5073446;28;20047;-74
2023/10/13 02:35:17;;;;;;;11.38;7.90;;;15.10;99.90;;;;;;5084278;28;20126;-74
2023/10/13 02:38:10;;;;;;;13.38;8.05;;;15.10;99.90;;;;;;5066842;28;20031;-74
2023/10/13 02:40:56;;;;;;;12.30;8.60;;;15.20;99.90;;;;;;5064812;28;20452;-74
2023/10/13 02:43:43;;;;;;;14.15;7.93;;;15.10;99.90;;;;;;5088031;28;20079;-74
2023/10/13 02:46:29;;;;;;;12.70;7.78;;;15.20;99.90;;;;;;5072837;28;20066;-74
2023/10/13 02:49:19;;;;;;;15.25;7.95;;;15.20;99.90;;;;;;5080724;28;20096;-74
2023/10/13 02:52:08;;;;;;;12.93;7.75;;;15.20;99.90;;;;;;5096811;28;20519;-74
2023/10/13 02:54:54;;;;;;;14.20;7.82;;;15.20;99.90;;;;;;5091735;28;20031;-74
2023/10/13 02:57:40;;;;;;;11.95;7.60;;;15.20;99.90;;;;;;5103673;28;20040;-74
2023/10/13 03:00:31;;;;;;;12.07;8.18;;;15.20;99.90;;;;;;5081110;28;20122;-74
2023/10/13 03:03:19;;;;;;;12.90;7.55;;;15.20;99.90;;;;;;5101513;28;20035;-74
2023/10/13 03:06:05;;;;;;;12.27;7.55;;;15.20;99.90;;;;;;5071340;28;20368;-74
2023/10/13 03:08:56;;;;;;;12.30;7.55;;;15.20;99.90;;;;;;5084672;28;20066;-74
2023/10/13 03:11:51;;;;;;;9.98;6.68;;;15.30;99.90;;;;;;5084774;28;20043;-74
2023/10/13 03:14:36;;;;;;;12.40;7.55;;;15.30;99.90;;;;;;5081003;28;20118;-74
2023/10/13 03:17:33;;;;;;;12.35;7.10;;;15.30;99.90;;;;;;5104255;28;20170;-74
2023/10/13 03:20:24;;;;;;;8.80;6.40;;;15.30;99.90;;;;;;5075180;28;20124;-74
2023/10/13 03:23:10;;;;;;;11.15;6.38;;;15.30;99.90;;;;;;5075965;28;20070;-74
2023/10/13 03:25:56;;;;;;;12.05;6.25;;;15.30;99.90;;;;;;5095122;28;20046;-74
2023/10/13 03:28:42;;;;;;;10.38;6.60;;;15.30;99.90;;;;;;5080758;28;20422;-74
2023/10/13 03:31:36;;;;;;;9.10;6.53;;;15.30;99.90;;;;;;5083327;28;20053;-74
2023/10/13 03:34:22;;;;;;;10.93;6.32;;;15.30;99.90;;;;;;5069142;28;20547;-74
2023/10/13 03:37:17;;;;;;;8.10;5.90;;;15.30;99.90;;;;;;5071670;28;20040;-74
2023/10/13 03:40:48;;;;;;;11.48;6.00;;;15.30;99.90;;;;;;5081591;28;20051;-74
2023/10/13 03:43:13;;;;;;;8.85;6.53;;;15.30;99.90;;;;;;5072701;28;20075;-73
2023/10/13 03:46:00;;;;;;;12.00;6.63;;;15.30;99.90;;;;;;5093224;28;20066;-74
2023/10/13 03:49:01;;;;;;;12.30;6.50;;;15.30;99.90;;;;;;5088378;28;20046;-77
2023/10/13 03:51:54;;;;;;;11.27;6.35;;;15.40;99.90;;;;;;5098028;28;20035;-74
2023/10/13 03:54:43;;;;;;;12.85;6.93;;;15.40;99.90;;;;;;5065182;28;20352;-74
2023/10/13 03:57:32;;;;;;;9.75;6.60;;;15.40;99.90;;;;;;5079328;28;20728;-76
2023/10/13 04:00:27;;;;;;;15.05;7.40;;;15.40;99.90;;;;;;5065372;28;20054;-74
2023/10/13 04:03:17;;;;;;;8.07;6.28;;;15.40;99.90;;;;;;5067574;28;20044;-74
2023/10/13 04:06:06;;;;;;;11.93;7.85;;;15.40;99.90;;;;;;5084589;28;20028;-74
2023/10/13 04:15:36;;;;;;;12.00;8.25;;;15.60;99.90;;;;;;5106605;28;20058;-73
2023/10/13 04:17:53;;;;;;;12.77;8.60;;;15.60;99.90;;;;;;5095745;28;20049;-77
2023/10/13 04:20:46;;;;;;;11.32;8.50;;;15.60;99.90;;;;;;5074157;28;20040;-76
2023/10/13 04:24:08;;;;;;;12.55;7.82;;;15.60;99.90;;;;;;5083174;28;20071;-77
2023/10/13 04:26:59;;;;;;;12.30;8.60;;;15.70;99.90;;;;;;5107815;28;20491;-76
2023/10/13 04:33:06;;;;;;;9.90;8.25;;;15.70;99.90;;;;;;5086041;28;20131;-76
2023/10/13 04:35:58;;;;;;;13.45;8.73;;;15.70;99.90;;;;;;5073504;28;20531;-76
2023/10/13 04:38:59;;;;;;;11.75;7.65;;;15.70;99.90;;;;;;5077836;28;20424;-76
2023/10/13 04:44:52;;;;;;;10.05;8.20;;;15.70;99.90;;;;;;5094371;28;20062;-77
2023/10/13 04:47:56;;;;;;;14.10;8.73;;;15.70;99.90;;;;;;5074852;28;20047;-76
2023/10/13 04:50:46;;;;;;;11.75;8.73;;;15.70;99.90;;;;;;5074951;28;20039;-77
2023/10/13 04:53:34;;;;;;;16.02;8.02;;;15.70;99.90;;;;;;5081143;28;20043;-77
2023/10/13 04:59:43;;;;;;;14.60;8.25;;;15.70;99.90;;;;;;5076808;28;20051;-76
2023/10/13 05:48:12;;;;;;;12.60;7.45;;;15.90;99.90;;;;;;5105802;28;20410;-77
2023/10/13 06:31:35;;;;;;;12.50;7.18;;;16.10;99.90;;;;;;5087836;28;20404;-77
2023/10/13 06:34:20;;;;;;;12.75;7.47;;;16.20;99.90;;;;;;5106665;28;20067;-76
2023/10/13 06:43:16;;;;;;;13.30;7.95;;;16.20;99.90;;;;;;5091774;28;20051;-76
2023/10/13 06:46:03;;;;;;;11.38;6.80;;;16.20;99.90;;;;;;5075738;28;20044;-76
2023/10/13 06:48:53;;;;;;;11.75;7.43;;;16.30;99.90;;;;;;5080792;28;20062;-77
2023/10/13 06:51:39;;;;;;;12.27;6.88;;;16.30;99.90;;;;;;5077029;28;20046;-77
2023/10/13 06:54:25;;;;;;;13.05;7.43;;;16.30;99.90;;;;;;5085519;28;20109;-77
2023/10/13 06:57:20;;;;;;;10.50;6.70;;;16.30;99.90;;;;;;5068269;28;20053;-77
2023/10/13 07:00:09;;;;;;;14.32;6.95;;;16.30;99.90;;;;;;5064062;28;20035;-77
2023/10/13 07:03:05;;;;;;;12.57;7.30;;;16.30;99.90;;;;;;5096103;28;20051;-77
2023/10/13 07:05:52;;;;;;;12.52;7.18;;;16.30;99.90;;;;;;5075765;28;20737;-77
2023/10/13 07:08:38;;;;;;;12.63;7.63;;;16.30;99.90;;;;;;5082616;28;20040;-77
2023/10/13 07:11:33;;;;;;;12.38;7.43;;;16.40;99.90;;;;;;5091095;28;20096;-77
2023/10/13 07:14:20;;;;;;;15.10;7.53;;;16.40;99.90;;;;;;5084409;28;20040;-76
2023/10/13 07:17:07;;;;;;;13.88;7.90;;;16.40;99.90;;;;;;5070530;28;20058;-74
2023/10/13 07:19:53;;;;;;;15.38;8.25;;;16.40;99.90;;;;;;5074031;28;20039;-74
2023/10/13 07:22:39;;;;;;;12.25;8.07;;;16.40;99.90;;;;;;5081813;28;20052;-74
2023/10/13 07:25:26;;;;;;;12.05;7.78;;;16.40;99.90;;;;;;5095198;28;20036;-74
2023/10/13 07:28:11;;;;;;;12.10;7.85;;;16.40;99.90;;;;;;5082624;28;20372;-74
2023/10/13 07:33:47;;;;;;;14.68;7.78;;;16.50;99.90;;;;;;5086021;28;20054;-75
2023/10/13 07:36:39;;;;;;;10.13;7.60;;;16.50;99.90;;;;;;5057836;28;20040;-75
2023/10/13 07:39:25;;;;;;;15.27;7.43;;;16.50;99.90;;;;;;5067857;28;20036;-75
2023/10/13 07:42:19;;;;;;;16.20;7.32;;;16.60;99.90;;;;;;5077100;28;20455;-75
2023/10/13 07:45:11;;;;;;;9.80;7.32;;;16.60;99.90;;;;;;5096571;28;20069;-75
2023/10/13 07:48:00;;;;;;;12.45;7.22;;;16.60;99.90;;;;;;5091731;28;20051;-75
2023/10/13 07:51:03;;;;;;;14.40;8.05;;;16.50;99.90;;;;;;5088520;28;20099;-75
2023/10/13 07:53:49;;;;;;;13.38;7.38;;;16.50;99.90;;;;;;5065770;28;20371;-74
2023/10/13 07:56:39;;;;;;;10.18;6.95;;;16.60;99.90;;;;;;5076362;28;20067;-74
2023/10/13 07:59:25;;;;;;;12.85;8.18;;;16.60;99.90;;;;;;5106319;28;20414;-74
2023/10/13 08:02:33;;;;;;;10.48;7.88;;;16.60;99.90;;;;;;5080714;28;20035;-74
2023/10/13 08:05:39;;;;;;;12.10;7.45;;;16.70;99.90;;;;;;5084223;28;20615;-74
2023/10/13 08:08:37;;;;;;;16.08;8.55;;;16.70;99.90;;;;;;5102377;28;20040;-74
2023/10/13 08:14:17;;;;;;;11.48;7.63;;;16.70;99.90;;;;;;5088958;28;20051;-74
2023/10/13 08:17:07;;;;;;;12.07;7.18;;;16.80;99.90;;;;;;5081161;28;20141;-74
2023/10/13 08:19:53;;;;;;;12.68;7.60;;;16.80;99.90;;;;;;5081443;28;20127;-75
2023/10/13 08:22:46;;;;;;;11.40;7.22;;;16.90;99.90;;;;;;5068440;28;20047;-74
2023/10/13 08:28:53;;;;;;;12.95;7.20;;;17.00;99.90;;;;;;5089831;28;20347;-74
2023/10/13 08:31:42;;;;;;;8.98;6.57;;;17.00;99.90;;;;;;5083279;28;20480;-74
2023/10/13 08:34:29;;;;;;;13.05;6.90;;;17.00;99.90;;;;;;5095218;28;20490;-74
2023/10/13 08:43:09;;;;;;;10.30;5.70;;;17.10;99.90;;;;;;5077979;28;20057;-77
2023/10/13 08:45:58;;;;;;;9.32;5.63;;;17.10;99.90;;;;;;5085111;28;20074;-76
2023/10/13 08:48:47;;;;;;;9.80;5.78;;;17.20;99.90;;;;;;5062431;28;20486;-77
2023/10/13 08:51:49;;;;;;;7.47;5.07;;;17.20;99.90;;;;;;5080491;28;20031;-76
2023/10/13 08:55:00;;;;;;;10.07;5.20;;;17.30;99.90;;;;;;5084322;28;20061;-76
2023/10/13 08:57:49;;;;;;;8.60;5.40;;;17.30;99.90;;;;;;5062707;28;20116;-77
2023/10/13 09:00:55;;;;;;;9.70;4.63;;;17.40;99.90;;;;;;5089763;28;20044;-76
2023/10/13 09:03:42;;;;;;;10.05;4.45;;;17.40;99.90;;;;;;5074084;28;20382;-74
2023/10/13 09:06:28;;;;;;;10.52;4.80;;;17.40;99.90;;;;;;5095114;28;20466;-74
2023/10/13 09:09:26;;;;;;;8.38;4.88;;;17.40;99.90;;;;;;5066601;28;20068;-74
2023/10/13 09:15:19;;;;;;;9.38;5.55;;;17.40;99.90;;;;;;5081292;28;20062;-74
2023/10/13 09:18:15;;;;;;;11.30;6.40;;;17.40;99.90;;;;;;5080232;28;20039;-74
2023/10/13 09:24:21;;;;;;;9.27;4.82;;;17.50;99.90;;;;;;5090652;28;20044;-74
2023/10/13 09:27:12;;;;;;;8.35;4.45;;;17.50;99.90;;;;;;5064565;28;20032;-74
2023/10/13 09:30:18;;;;;;;10.95;4.60;;;17.50;99.90;;;;;;5066577;28;20039;-74
2023/10/13 09:33:04;;;;;;;11.32;7.20;;;17.60;99.90;;;;;;5074071;28;20042;-74
2023/10/13 09:35:50;;;;;;;9.38;4.57;;;17.60;99.90;;;;;;5079818;28;20039;-74
2023/10/13 09:38:40;;;;;;;8.60;5.22;;;17.70;99.90;;;;;;5068161;28;20048;-74
2023/10/13 09:41:27;;;;;;;10.07;4.90;;;17.70;99.90;;;;;;5083016;28;20057;-74
2023/10/13 09:44:13;;;;;;;6.50;5.03;;;17.80;99.90;;;;;;5069185;28;20086;-74
2023/10/13 09:47:07;;;;;;;11.23;4.90;;;17.90;99.90;;;;;;5095726;28;20500;-74
2023/10/13 09:49:57;;;;;;;7.78;4.78;;;17.90;99.90;;;;;;5081178;28;20051;-74
2023/10/13 09:52:43;;;;;;;10.23;5.32;;;18.00;99.90;;;;;;5065174;28;20058;-74
2023/10/13 09:55:33;;;;;;;8.30;4.60;;;18.00;99.90;;;;;;5076638;28;20124;-74
2023/10/13 09:58:19;;;;;;;11.00;5.03;;;18.10;99.90;;;;;;5073139;28;20065;-74
2023/10/13 10:01:09;;;;;;;10.30;4.85;;;18.20;99.90;;;;;;5083725;28;20035;-74
2023/10/13 10:04:13;;;;;;;9.27;4.82;;;18.20;99.90;;;;;;5083739;28;20093;-74
2023/10/13 10:07:00;;;;;;;9.23;4.53;;;18.30;99.90;;;;;;5095915;28;20181;-74
2023/10/13 10:09:48;;;;;;;13.82;5.40;;;18.40;99.90;;;;;;5084618;28;20043;-74
2023/10/13 10:12:50;;;;;;;11.82;5.32;;;18.40;99.90;;;;;;5080682;28;20043;-74
2023/10/13 10:15:43;;;;;;;11.65;5.63;;;18.40;99.90;;;;;;5096369;28;20036;-74
2023/10/13 10:18:29;;;;;;;14.55;4.80;;;18.50;99.90;;;;;;5090629;28;20372;-74
2023/10/13 10:21:16;;;;;;;11.30;4.72;;;18.60;99.90;;;;;;5080459;28;20046;-75
2023/10/13 10:24:15;;;;;;;9.63;4.50;;;18.70;99.90;;;;;;5093897;28;20047;-75
2023/10/13 10:27:04;;;;;;;17.17;5.30;;;18.90;99.90;;;;;;5082273;28;20035;-75
2023/10/13 10:29:54;;;;;;;11.10;4.78;;;19.00;99.90;;;;;;5076887;28;20112;-75
2023/10/13 10:32:41;;;;;;;12.27;4.95;;;19.10;99.90;;;;;;5074059;28;20159;-75
2023/10/13 10:35:32;;;;;;;17.77;5.80;;;19.00;99.90;;;;;;5098754;28;20506;-74
2023/10/13 10:41:14;;;;;;;13.93;5.65;;;19.10;99.90;;;;;;5082790;28;20043;-75
2023/10/13 10:44:02;;;;;;;17.75;5.15;;;19.20;99.90;;;;;;5068799;28;20039;-75
2023/10/13 10:46:57;;;;;;;14.90;5.20;;;19.30;99.90;;;;;;5079429;28;20053;-75
2023/10/13 10:49:43;;;;;;;14.88;4.82;;;19.40;99.90;;;;;;5051763;28;20346;-75
2023/10/13 10:52:36;;;;;;;12.50;4.55;;;19.60;99.90;;;;;;5038534;28;20049;-75
2023/10/13 10:55:27;;;;;;;12.93;5.40;;;19.70;99.90;;;;;;5059051;28;20098;-75
2023/10/13 10:58:28;;;;;;;11.80;4.95;;;19.80;99.90;;;;;;5063361;28;20125;-75
2023/10/13 11:01:21;;;;;;;12.73;4.50;;;19.80;99.90;;;;;;5062669;28;20492;-75
2023/10/13 11:04:33;;;;;;;15.52;5.20;;;19.80;99.90;;;;;;5057793;28;20375;-75
2023/10/13 11:07:21;;;;;;;14.63;4.80;;;19.80;99.90;;;;;;5057830;28;20504;-75
2023/10/13 11:10:17;;;;;;;15.02;5.22;;;19.80;99.90;;;;;;5071422;28;20032;-74
2023/10/13 11:13:13;;;;;;;15.13;5.32;;;19.80;99.90;;;;;;5063557;28;20044;-75
2023/10/13 11:15:59;;;;;;;16.08;4.70;;;19.90;99.90;;;;;;5049481;28;20386;-78
2023/10/13 11:18:47;;;;;;;15.10;4.95;;;20.00;99.90;;;;;;5053369;28;20036;-77
2023/10/13 11:21:37;;;;;;;12.35;4.88;;;20.00;99.90;;;;;;5069763;28;20036;-77
2023/10/13 11:24:23;;;;;;;15.25;5.13;;;20.00;99.90;;;;;;5042336;28;20045;-77
2023/10/13 11:27:21;;;;;;;13.88;5.20;;;20.00;99.90;;;;;;5056199;28;20375;-77
2023/10/13 11:30:12;;;;;;;14.10;4.53;;;20.00;99.90;;;;;;5068546;28;20106;-79
2023/10/13 11:33:07;;;;;;;13.65;5.18;;;20.00;99.90;;;;;;5060390;28;20086;-77
2023/10/13 11:35:56;;;;;;;13.13;4.38;;;20.00;99.90;;;;;;5060231;28;20105;-78
2023/10/13 11:39:00;;;;;;;14.77;5.00;;;20.10;99.90;;;;;;5032297;28;20548;-77
2023/10/13 11:41:53;;;;;;;14.13;5.03;;;20.10;99.90;;;;;;5066218;28;20091;-78
2023/10/13 11:44:43;;;;;;;15.43;5.03;;;20.30;99.90;;;;;;5047983;28;20679;-77
2023/10/13 11:50:34;;;;;;;15.23;4.85;;;20.70;99.90;;;;;;5082157;28;20456;-77
2023/10/13 11:53:20;;;;;;;12.93;4.47;;;20.90;99.90;;;;;;5075501;28;20039;-77
2023/10/13 11:56:11;;;;;;;11.80;5.07;;;21.10;99.90;;;;;;5090003;28;20096;-78
2023/10/13 11:59:01;;;;;;;13.63;4.57;;;21.00;99.90;;;;;;5078745;28;20124;-76
2023/10/13 12:04:54;;;;;;;15.48;5.20;;;21.10;99.90;;;;;;5078767;28;20418;-76
2023/10/13 12:07:45;;;;;;;13.40;5.00;;;21.30;99.90;;;;;;5069183;28;20129;-76
2023/10/13 12:10:34;;;;;;;17.80;5.65;;;21.50;99.90;;;;;;5079442;28;20027;-76
2023/10/13 12:13:21;;;;;;;12.00;4.93;;;21.80;99.90;;;;;;5072704;28;20048;-76
2023/10/13 12:16:09;;;;;;;13.57;5.32;;;21.70;99.90;;;;;;5077560;28;20097;-75
2023/10/13 12:18:55;;;;;;;;;;;21.60;99.90;;;;;;5088395;28;20444;-74
2023/10/13 12:21:43;;;;;;;10.90;4.68;;;21.50;99.90;;;;;;5086257;28;19912;-74
2023/10/13 12:27:34;;;;;;;13.30;5.07;;;22.40;99.90;;;;;;5078850;28;20047;-73
2023/10/13 12:30:35;;;;;;;16.95;5.30;;;22.60;99.90;;;;;;5078351;28;20036;-73
2023/10/13 12:33:24;;;;;;;11.57;4.82;;;22.90;99.90;;;;;;5065734;28;20044;-74
2023/10/13 12:51:19;;;;;;;12.85;4.68;;;23.80;99.90;;;;;;5053419;28;20048;-74
2023/10/13 12:54:13;;;;;;;19.27;5.88;;;23.60;99.90;;;;;;5055953;28;20045;-73
2023/10/13 12:56:59;;;;;;;10.85;4.85;;;23.00;99.90;;;;;;5065711;28;20041;-74
2023/10/13 12:59:45;;;;;;;21.20;5.15;;;22.70;99.90;;;;;;5063444;28;20036;-74
2023/10/13 13:02:31;;;;;;;15.02;4.80;;;22.50;99.90;;;;;;5051343;28;20040;-74
2023/10/13 13:05:21;;;;;;;17.80;5.68;;;22.40;99.90;;;;;;5046603;28;20051;-74
2023/10/13 13:08:07;;;;;;;13.82;5.50;;;22.20;99.90;;;;;;5042934;28;20052;-74
2023/10/13 13:10:53;;;;;;;13.02;5.10;;;22.10;99.90;;;;;;5043744;28;20051;-76
2023/10/13 13:13:39;;;;;;;13.85;6.20;;;21.90;99.90;;;;;;5066689;28;20139;-75
2023/10/13 13:16:25;;;;;;;11.60;4.40;;;21.80;99.90;;;;;;5053562;28;20067;-74
2023/10/13 13:19:14;;;;;;;14.85;5.82;;;21.80;99.90;;;;;;5036811;28;20052;-74
2023/10/13 13:22:00;;;;;;;17.92;5.45;;;21.70;99.90;;;;;;5063844;28;20036;-74
2023/10/13 13:24:47;;;;;;;14.18;5.45;;;21.70;99.90;;;;;;5040171;28;20555;-74
2023/10/13 13:27:33;;;;;;;11.53;5.20;;;21.90;99.90;;;;;;5047395;28;20165;-74
2023/10/13 13:30:21;;;;;;;13.25;5.65;;;22.10;99.90;;;;;;5034019;28;20044;-74
2023/10/13 13:33:14;;;;;;;15.70;5.75;;;22.10;99.90;;;;;;5065669;28;20106;-74
2023/10/13 13:36:00;;;;;;;9.55;5.10;;;22.00;99.90;;;;;;5065034;28;20350;-73
2023/10/13 13:38:48;;;;;;;11.90;5.55;;;22.00;99.90;;;;;;5048481;28;20376;-74
2023/10/13 13:41:34;;;;;;;;;;;22.10;99.90;;;;;;5055174;28;20040;-74
2023/10/13 13:44:20;;;;;;;14.82;5.20;;;22.10;99.90;;;;;;5070127;28;20003;-74
2023/10/13 13:47:11;;;;;;;14.57;5.07;;;22.10;99.90;;;;;;5068014;28;20076;-74
2023/10/13 13:49:58;;;;;;;15.65;5.38;;;22.10;99.90;;;;;;5069136;28;20508;-74
2023/10/13 13:52:45;;;;;;;16.40;4.97;;;22.00;99.90;;;;;;5041180;28;20048;-75
2023/10/13 13:55:33;;;;;;;11.98;5.25;;;22.10;99.90;;;;;;5053231;28;20369;-75
2023/10/13 13:58:19;;;;;;;13.23;5.65;;;22.10;99.90;;;;;;5062986;28;20036;-75
2023/10/13 14:04:10;;;;;;;11.88;5.63;;;22.40;99.90;;;;;;5062186;28;20052;-74
2023/10/13 14:06:55;;;;;;;13.98;5.65;;;22.20;99.90;;;;;;5059980;28;20043;-74
2023/10/13 14:09:43;;;;;;;16.85;5.30;;;22.10;99.90;;;;;;5051799;28;20079;-75
2023/10/13 14:12:29;;;;;;;11.77;4.88;;;22.00;99.90;;;;;;5040949;28;20055;-73
2023/10/13 14:15:23;;;;;;;13.00;5.00;;;21.90;99.90;;;;;;5065741;28;20047;-73
2023/10/13 14:18:14;;;;;;;14.90;5.28;;;22.00;99.90;;;;;;5040625;28;20040;-73
2023/10/13 14:21:03;;;;;;;14.80;5.30;;;22.20;99.90;;;;;;5047231;28;20048;-73
2023/10/13 14:23:53;;;;;;;13.93;5.30;;;22.20;99.90;;;;;;5036565;28;20384;-73
2023/10/13 14:26:39;;;;;;;15.55;5.60;;;22.40;99.90;;;;;;5054747;28;20328;-73
2023/10/13 14:29:26;;;;;;;13.13;5.68;;;22.50;99.90;;;;;;5057947;28;20040;-73
2023/10/13 14:32:14;;;;;;;12.93;5.15;;;22.50;99.90;;;;;;5056492;28;20090;-73
2023/10/13 14:35:10;;;;;;;13.02;5.60;;;22.50;99.90;;;;;;5039657;28;20551;-73
2023/10/13 14:37:56;;;;;;;10.98;5.05;;;22.50;99.90;;;;;;5043595;28;20536;-73
2023/10/13 14:40:42;;;;;;;18.05;6.13;;;22.40;99.90;;;;;;5046184;28;20051;-73
2023/10/13 14:43:28;;;;;;;13.35;4.90;;;22.40;99.90;;;;;;5052138;28;20485;-73
2023/10/13 14:46:18;;;;;;;12.13;4.88;;;22.30;99.90;;;;;;5065565;28;20139;-73
2023/10/13 14:49:04;;;;;;;15.43;5.53;;;22.30;99.90;;;;;;5068793;28;20046;-75
2023/10/13 14:51:50;;;;;;;14.73;5.95;;;22.20;99.90;;;;;;5085613;28;20485;-75
2023/10/13 14:54:36;;;;;;;14.93;5.68;;;22.20;99.90;;;;;;5094859;28;20110;-73
2023/10/13 14:57:24;;;;;;;14.25;6.55;;;22.20;99.90;;;;;;5084933;28;20032;-73
2023/10/13 15:00:13;;;;;;;21.40;5.97;;;22.20;99.90;;;;;;5095948;28;20085;-73
2023/10/13 15:03:04;;;;;;;11.90;5.28;;;22.20;99.90;;;;;;5084050;28;20048;-73
2023/10/13 15:05:50;;;;;;;17.42;5.47;;;22.10;99.90;;;;;;5086366;28;20357;-74
2023/10/13 15:08:36;;;;;;;12.40;5.75;;;22.00;99.90;;;;;;5096024;28;20047;-74
2023/10/13 15:11:26;;;;;;;15.63;5.82;;;22.00;99.90;;;;;;5082642;28;20052;-74
2023/10/13 15:14:13;;;;;;;18.65;5.75;;;21.90;99.90;;;;;;5093171;28;20031;-74
2023/10/13 15:17:00;;;;;;;12.55;5.80;;;21.80;99.90;;;;;;5102218;28;20351;-73
2023/10/13 15:19:46;;;;;;;11.65;5.38;;;21.70;99.90;;;;;;5109408;28;20035;-74
2023/10/13 15:22:34;;;;;;;16.10;6.72;;;21.60;99.90;;;;;;5069147;28;20035;-74
2023/10/13 15:25:20;;;;;;;17.23;6.15;;;21.60;99.90;;;;;;5084643;28;20085;-74
2023/10/13 15:28:09;;;;;;;14.05;5.65;;;21.50;99.90;;;;;;5094175;28;20387;-73
2023/10/13 15:31:04;;;;;;;11.25;5.43;;;21.50;99.90;;;;;;5083014;28;20089;-74
2023/10/13 15:33:57;;;;;;;14.95;5.10;;;21.40;99.90;;;;;;5080995;28;20071;-74
2023/10/13 15:36:43;;;;;;;14.48;6.10;;;;;;;;;;5075468;28;20050;-74
2023/10/13 15:39:31;;;;;;;15.23;5.82;;;21.40;99.90;;;;;;5080861;28;20053;-74
2023/10/13 15:42:18;;;;;;;14.65;5.60;;;21.40;99.90;;;;;;5068848;28;20047;-75
2023/10/13 15:45:16;;;;;;;16.23;5.47;;;21.40;99.90;;;;;;5095709;28;20376;-76
2023/10/13 15:48:04;;;;;;;14.40;5.25;;;21.30;99.90;;;;;;5078002;28;20054;-74
2023/10/13 15:50:50;;;;;;;17.63;5.35;;;21.30;99.90;;;;;;5094777;28;20046;-72
2023/10/13 15:53:36;;;;;;;17.27;5.85;;;;;;;;;;5079422;28;20051;-75
2023/10/13 15:56:22;;;;;;;20.98;6.60;;;21.30;99.90;;;;;;5086674;28;20573;-75
2023/10/13 15:59:09;;;;;;;14.20;5.63;;;21.30;99.90;;;;;;5085087;28;20039;-72
2023/10/13 16:01:57;;;;;;;11.15;5.45;;;;;;;;;;5066810;28;20403;-74
2023/10/13 16:04:44;;;;;;;15.52;5.68;;;21.30;99.90;;;;;;5105104;28;20126;-74
2023/10/13 16:07:31;;;;;;;15.15;5.80;;;21.30;99.90;;;;;;5107852;28;20031;-75
2023/10/13 16:10:23;;;;;;;12.57;5.82;;;21.30;99.90;;;;;;5064537;28;20050;-74
2023/10/13 16:13:15;;;;;;;17.55;6.65;;;21.30;99.90;;;;;;5064135;28;20536;-74
2023/10/13 16:16:01;;;;;;;15.63;6.20;;;21.30;99.90;;;;;;5075201;28;20036;-74
2023/10/13 16:18:47;;;;;;;14.50;5.60;;;21.30;99.90;;;;;;5080499;28;20456;-74
2023/10/13 16:21:33;;;;;;;16.80;5.90;;;;;;;;;;5096512;28;20043;-74
2023/10/13 16:24:20;;;;;;;16.60;6.10;;;21.30;99.90;;;;;;5092595;28;20046;-74
2023/10/13 16:27:06;;;;;;;12.13;5.85;;;21.20;99.90;;;;;;5066699;28;20051;-75
2023/10/13 16:29:54;;;;;;;17.02;6.22;;;21.20;99.90;;;;;;5086338;28;20062;-74
2023/10/13 16:32:40;;;;;;;13.00;5.55;;;21.20;99.90;;;;;;5079523;28;20052;-75
2023/10/13 16:35:26;;;;;;;15.02;5.72;;;21.20;99.90;;;;;;5081833;28;20032;-74
2023/10/13 16:38:12;;;;;;;15.88;5.95;;;21.10;99.90;;;;;;5094619;28;20130;-75
2023/10/13 16:40:58;;;;;;;15.32;5.60;;;21.10;99.90;;;;;;5074022;28;20067;-73
2023/10/13 16:43:44;;;;;;;14.07;5.82;;;21.10;99.90;;;;;;5072656;28;20368;-74
2023/10/13 16:46:31;;;;;;;18.45;6.22;;;21.10;99.90;;;;;;5078969;28;20062;-73
2023/10/13 16:49:19;;;;;;;10.18;5.70;;;21.10;99.90;;;;;;5070657;28;20062;-74
2023/10/13 16:52:05;;;;;;;14.38;5.30;;;21.00;99.90;;;;;;5093701;28;20093;-74
2023/10/13 16:54:53;;;;;;;12.45;5.38;;;21.00;99.90;;;;;;5083561;28;20495;-73
2023/10/13 16:57:39;;;;;;;16.55;5.85;;;21.00;99.90;;;;;;5065775;28;20047;-75
2023/10/13 17:00:27;;;;;;;9.75;6.13;;;21.00;99.90;;;;;;5092172;28;20054;-75
2023/10/13 17:03:13;;;;;;;17.45;6.72;;;21.00;99.90;;;;;;5060817;28;20048;-75
2023/10/13 17:06:03;;;;;;;15.48;6.32;;;;;;;;;;5082092;28;20044;-74
2023/10/13 17:08:49;;;;;;;14.52;5.78;;;20.90;99.90;;;;;;5108779;28;20092;-74
2023/10/13 17:11:35;;;;;;;12.55;6.00;;;20.90;99.90;;;;;;5080262;28;20238;-76
2023/10/13 17:14:21;;;;;;;20.08;6.18;;;20.90;99.90;;;;;;5073763;28;20040;-75